createdAt,value
2018-07-27T00:04:35.784Z,5.45
2018-07-27T00:10:05.501Z,5.47
2018-07-27T00:15:34.760Z,6.17
2018-07-27T00:21:04.717Z,5.50
2018-07-27T00:26:34.044Z,6.17
2018-07-27T00:32:03.330Z,6.35
2018-07-27T00:37:32.670Z,5.92
2018-07-27T00:43:01.899Z,6.27
2018-07-27T00:48:31.234Z,6.00
2018-07-27T00:54:00.484Z,6.40
2018-07-27T00:59:30.590Z,6.05
2018-07-27T01:04:59.558Z,7.17
2018-07-27T01:10:28.841Z,6.58
2018-07-27T01:15:58.115Z,6.45
2018-07-27T01:21:27.429Z,6.58
2018-07-27T01:26:56.656Z,7.00
2018-07-27T01:32:25.911Z,6.87
2018-07-27T01:37:55.102Z,6.27
2018-07-27T01:43:24.469Z,6.47
2018-07-27T01:48:53.709Z,6.00
2018-07-27T01:54:23.011Z,6.70
2018-07-27T01:59:52.511Z,6.40
2018-07-27T02:05:21.870Z,6.85
2018-07-27T02:10:51.175Z,6.70
2018-07-27T02:16:20.584Z,6.97
2018-07-27T02:21:49.940Z,7.17
2018-07-27T02:27:19.346Z,7.45
2018-07-27T02:32:48.685Z,6.80
2018-07-27T02:38:18.019Z,7.45
2018-07-27T02:43:47.214Z,7.43
2018-07-27T02:49:17.215Z,7.20
2018-07-27T02:54:46.421Z,7.60
2018-07-27T03:00:15.755Z,6.72
2018-07-27T03:05:45.121Z,7.87
2018-07-27T03:11:14.534Z,7.22
2018-07-27T03:16:43.827Z,7.10
2018-07-27T03:22:13.160Z,7.30
2018-07-27T03:27:42.404Z,7.77
2018-07-27T03:33:12.883Z,7.55
2018-07-27T03:38:42.382Z,7.60
2018-07-27T03:44:11.596Z,7.22
2018-07-27T03:49:40.901Z,9.23
2018-07-27T03:55:10.135Z,7.55
2018-07-27T04:00:39.323Z,8.15
2018-07-27T04:06:08.645Z,7.95
2018-07-27T04:11:38.053Z,9.03
2018-07-27T04:17:07.006Z,8.45
2018-07-27T04:22:36.199Z,7.67
2018-07-27T04:28:05.637Z,8.87
2018-07-27T04:33:34.963Z,8.77
2018-07-27T04:39:06.345Z,7.92
2018-07-27T04:44:35.736Z,9.30
2018-07-27T04:50:05.297Z,8.70
2018-07-27T04:55:34.512Z,8.33
2018-07-27T05:01:03.755Z,8.08
2018-07-27T05:06:32.967Z,9.30
2018-07-27T05:12:02.267Z,8.73
2018-07-27T05:17:31.541Z,8.10
2018-07-27T05:23:00.760Z,9.28
2018-07-27T05:28:29.973Z,8.30
2018-07-27T05:33:59.249Z,7.70
2018-07-27T05:39:28.511Z,7.43
2018-07-27T05:44:57.803Z,8.60
2018-07-27T05:50:27.083Z,7.37
2018-07-27T05:55:56.392Z,7.50
2018-07-27T06:01:25.669Z,7.83
2018-07-27T06:06:55.010Z,7.83
2018-07-27T06:12:24.357Z,7.27
2018-07-27T06:17:53.730Z,8.00
2018-07-27T06:23:23.015Z,6.20
2018-07-27T06:28:52.462Z,6.40
2018-07-27T06:34:21.459Z,6.90
2018-07-27T06:39:50.752Z,6.83
2018-07-27T06:45:19.732Z,5.90
2018-07-27T06:50:51.527Z,6.55
2018-07-27T06:56:20.844Z,5.95
2018-07-27T07:01:50.385Z,6.47
2018-07-27T07:07:19.708Z,5.33
2018-07-27T07:12:49.319Z,6.47
2018-07-27T07:18:18.600Z,5.53
2018-07-27T07:23:47.907Z,5.90
2018-07-27T07:29:17.137Z,5.50
2018-07-27T07:34:46.420Z,5.25
2018-07-27T07:40:15.745Z,4.97
2018-07-27T07:45:44.980Z,5.20
2018-07-27T07:51:14.206Z,5.17
2018-07-27T07:56:43.588Z,5.40
2018-07-27T08:02:12.824Z,6.30
2018-07-27T08:07:42.061Z,5.57
2018-07-27T08:13:11.378Z,5.43
2018-07-27T08:18:40.908Z,5.00
2018-07-27T08:24:10.122Z,4.20
2018-07-27T08:29:41.490Z,5.27
2018-07-27T08:35:10.803Z,4.93
2018-07-27T08:40:40.198Z,4.33
2018-07-27T08:46:09.496Z,4.27
2018-07-27T08:51:38.849Z,4.20
2018-07-27T08:57:08.092Z,3.73
2018-07-27T09:02:37.330Z,4.08
2018-07-27T09:08:07.251Z,3.90
2018-07-27T09:13:36.536Z,3.45
2018-07-27T09:19:05.901Z,4.43
2018-07-27T09:24:35.140Z,3.80
2018-07-27T09:30:07.294Z,4.97
2018-07-27T09:35:37.744Z,4.33
2018-07-27T09:41:07.167Z,4.43
2018-07-27T09:46:36.849Z,4.67
2018-07-27T09:52:06.355Z,4.22
2018-07-27T09:57:35.726Z,4.70
2018-07-27T10:03:05.120Z,4.77
2018-07-27T10:08:34.423Z,4.47
2018-07-27T10:14:03.742Z,4.40
2018-07-27T10:19:32.970Z,4.97
2018-07-27T10:25:02.323Z,3.80
2018-07-27T10:30:31.592Z,3.45
2018-07-27T10:36:00.876Z,3.90
2018-07-27T10:41:30.073Z,3.50
2018-07-27T10:46:59.290Z,4.10
2018-07-27T10:52:28.540Z,3.70
2018-07-27T10:57:57.730Z,3.43
2018-07-27T11:03:26.955Z,3.13
2018-07-27T11:08:56.214Z,3.37
2018-07-27T11:14:25.864Z,2.80
2018-07-27T11:19:56.145Z,3.50
2018-07-27T11:25:25.819Z,3.20
2018-07-27T11:30:57.322Z,3.67
2018-07-27T11:36:27.184Z,3.47
2018-07-27T11:41:56.704Z,3.40
2018-07-27T11:47:25.977Z,3.37
2018-07-27T11:52:55.215Z,3.70
2018-07-27T11:58:24.781Z,2.93
2018-07-27T12:03:54.140Z,3.30
2018-07-27T12:09:23.422Z,2.87
2018-07-27T12:14:52.808Z,2.70
2018-07-27T12:20:22.091Z,3.00
2018-07-27T12:25:51.620Z,2.57
2018-07-27T12:31:20.828Z,3.30
2018-07-27T12:36:50.283Z,3.10
2018-07-27T12:42:19.587Z,3.00
2018-07-27T12:47:48.913Z,3.10
2018-07-27T12:53:18.474Z,2.83
2018-07-27T12:58:47.696Z,3.20
2018-07-27T13:04:16.808Z,2.67
2018-07-27T13:09:46.041Z,2.73
2018-07-27T13:15:15.279Z,3.40
2018-07-27T13:20:51.847Z,3.50
2018-07-27T13:31:52.701Z,3.67
2018-07-27T13:37:23.335Z,3.40
2018-07-27T13:42:52.829Z,3.00
2018-07-27T13:48:22.195Z,2.63
2018-07-27T13:53:51.496Z,2.80
2018-07-27T13:59:21.134Z,2.53
2018-07-27T14:04:50.798Z,2.83
2018-07-27T14:10:20.076Z,3.05
2018-07-27T14:15:49.164Z,3.37
2018-07-27T14:21:18.611Z,2.80
2018-07-27T14:26:47.993Z,3.00
2018-07-27T14:32:17.355Z,2.70
2018-07-27T14:37:46.689Z,3.10
2018-07-27T14:43:15.955Z,2.53
2018-07-27T14:48:45.289Z,3.40
2018-07-27T14:54:15.335Z,2.83
2018-07-27T14:59:44.585Z,3.17
2018-07-27T15:05:13.865Z,3.10
2018-07-27T15:10:43.128Z,2.43
2018-07-27T15:16:12.384Z,2.50
2018-07-27T15:21:41.584Z,2.40
2018-07-27T15:27:10.864Z,2.50
2018-07-27T15:32:40.149Z,2.50
2018-07-27T15:38:10.495Z,2.60
2018-07-27T15:43:39.944Z,3.20
2018-07-27T15:49:12.764Z,2.67
2018-07-27T15:54:42.009Z,3.17
2018-07-27T16:00:11.283Z,2.80
2018-07-27T16:05:40.479Z,3.47
2018-07-27T16:11:09.718Z,2.73
2018-07-27T16:16:39.030Z,2.90
2018-07-27T16:22:08.290Z,3.03
2018-07-27T16:27:37.514Z,3.03
2018-07-27T16:33:06.717Z,2.87
2018-07-27T16:38:37.122Z,3.17
2018-07-27T16:44:06.551Z,3.10
2018-07-27T16:49:35.879Z,2.63
2018-07-27T16:55:05.115Z,3.10
2018-07-27T17:00:34.063Z,3.27
2018-07-27T17:06:03.262Z,3.60
2018-07-27T17:11:32.473Z,2.73
2018-07-27T17:17:01.726Z,3.37
2018-07-27T17:22:30.881Z,3.40
2018-07-27T17:28:00.115Z,3.77
2018-07-27T17:33:29.307Z,3.57
2018-07-27T17:38:58.259Z,3.03
2018-07-27T17:44:27.550Z,4.07
2018-07-27T17:49:56.904Z,3.98
2018-07-27T17:55:26.337Z,3.17
2018-07-27T18:00:55.597Z,3.70
2018-07-27T18:06:24.926Z,4.40
2018-07-27T18:11:54.177Z,4.97
2018-07-27T18:17:23.450Z,4.20
2018-07-27T18:22:52.734Z,3.60
2018-07-27T18:28:22.049Z,4.07
2018-07-27T18:33:51.372Z,4.10
2018-07-27T18:39:20.665Z,4.50
2018-07-27T18:44:49.997Z,5.13
2018-07-27T18:50:19.347Z,5.50
2018-07-27T18:55:48.621Z,10.98
2018-07-27T19:01:17.923Z,25.10
2018-07-27T19:06:47.310Z,23.13
2018-07-27T19:12:16.608Z,28.30
2018-07-27T19:17:45.827Z,8.70
2018-07-27T19:23:14.805Z,9.20
2018-07-27T19:28:43.969Z,8.30
2018-07-27T19:34:13.657Z,5.73
2018-07-27T19:39:42.962Z,6.58
2018-07-27T19:45:11.983Z,5.83
2018-07-27T19:50:41.273Z,6.03
2018-07-27T19:56:10.542Z,6.03
2018-07-27T20:01:39.814Z,7.85
2018-07-27T20:07:09.058Z,5.70
2018-07-27T20:12:39.484Z,6.93
2018-07-27T20:18:08.812Z,7.20
2018-07-27T20:23:38.105Z,7.25
2018-07-27T20:29:07.317Z,7.63
2018-07-27T20:34:36.545Z,6.60
2018-07-27T20:40:06.491Z,7.43
2018-07-27T20:45:35.731Z,8.43
2018-07-27T20:51:05.016Z,7.90
2018-07-27T20:56:34.233Z,7.20
2018-07-27T21:02:03.451Z,7.13
2018-07-27T21:07:32.980Z,6.20
2018-07-27T21:13:02.214Z,6.30
2018-07-27T21:18:31.479Z,6.90
2018-07-27T21:24:00.719Z,6.80
2018-07-27T21:29:31.024Z,7.12
2018-07-27T21:35:00.425Z,7.20
2018-07-27T21:40:29.711Z,7.87
2018-07-27T21:45:59.057Z,7.47
2018-07-27T21:51:28.599Z,7.45
2018-07-27T21:56:57.917Z,7.77
2018-07-27T22:02:28.247Z,7.77
2018-07-27T22:07:57.570Z,8.88
2018-07-27T22:13:26.933Z,8.83
2018-07-27T22:18:56.197Z,8.37
2018-07-27T22:24:25.591Z,8.05
2018-07-27T22:29:54.907Z,8.27
2018-07-27T22:35:24.208Z,7.22
2018-07-27T22:40:53.482Z,8.80
2018-07-27T22:46:22.791Z,8.63
2018-07-27T22:51:52.102Z,9.27
2018-07-27T22:57:21.744Z,8.13
2018-07-27T23:02:50.974Z,8.37
2018-07-27T23:08:20.262Z,8.73
2018-07-27T23:13:49.557Z,9.00
2018-07-27T23:19:20.054Z,8.73
2018-07-27T23:24:49.372Z,9.70
2018-07-27T23:30:18.748Z,8.98
2018-07-27T23:35:48.009Z,10.07
2018-07-27T23:41:17.353Z,10.03
2018-07-27T23:46:47.752Z,9.40
2018-07-27T23:52:17.016Z,10.60
2018-07-27T23:57:46.361Z,9.50
